createdAt,value
2023-05-04T00:00:48.569Z,19.20
2023-05-04T00:03:16.934Z,20.38
2023-05-04T00:05:45.264Z,20.33
2023-05-04T00:08:13.714Z,18.92
2023-05-04T00:10:43.298Z,20.70
2023-05-04T00:13:11.883Z,19.40
2023-05-04T00:15:40.168Z,20.08
2023-05-04T00:18:08.617Z,20.00
2023-05-04T00:20:36.925Z,18.40
2023-05-04T00:23:06.069Z,20.35
2023-05-04T00:25:34.518Z,17.52
2023-05-04T00:28:04.176Z,20.15
2023-05-04T00:30:40.836Z,18.90
2023-05-04T00:33:09.213Z,19.80
2023-05-04T00:35:37.774Z,21.42
2023-05-04T00:38:06.025Z,19.42
2023-05-04T00:40:35.196Z,19.73
2023-05-04T00:43:04.838Z,19.55
2023-05-04T00:45:33.541Z,20.77
2023-05-04T00:48:01.999Z,18.58
2023-05-04T00:50:30.542Z,17.83
2023-05-04T00:53:00.292Z,19.30
2023-05-04T00:55:28.584Z,20.00
2023-05-04T00:57:57.236Z,19.30
2023-05-04T01:00:27.290Z,20.27
2023-05-04T01:02:55.670Z,19.10
2023-05-04T01:05:25.017Z,19.88
2023-05-04T01:07:58.073Z,21.05
2023-05-04T01:10:30.447Z,19.48
2023-05-04T01:13:03.103Z,20.70
2023-05-04T01:15:33.304Z,20.35
2023-05-04T01:18:01.939Z,19.77
2023-05-04T01:20:30.515Z,19.48
2023-05-04T01:23:00.353Z,19.33
2023-05-04T01:25:31.556Z,20.52
2023-05-04T01:28:04.122Z,19.58
2023-05-04T01:30:37.484Z,19.30
2023-05-04T01:33:06.083Z,17.80
2023-05-04T01:35:34.668Z,18.88
2023-05-04T01:38:04.754Z,20.05
2023-05-04T01:40:33.309Z,19.00
2023-05-04T01:43:01.633Z,18.98
2023-05-04T01:45:30.008Z,17.15
2023-05-04T01:47:58.336Z,18.50
2023-05-04T01:50:26.790Z,18.23
2023-05-04T01:52:55.133Z,18.33
2023-05-04T01:55:24.729Z,17.58
2023-05-04T01:57:53.020Z,17.30
2023-05-04T02:00:21.718Z,17.45
2023-05-04T02:02:50.167Z,19.33
2023-05-04T02:05:18.532Z,18.38
2023-05-04T02:07:46.802Z,17.90
2023-05-04T02:10:15.153Z,17.35
2023-05-04T02:12:44.813Z,17.38
2023-05-04T02:15:13.158Z,15.80
2023-05-04T02:17:41.595Z,14.55
2023-05-04T02:20:11.219Z,15.52
2023-05-04T02:22:39.583Z,14.38
2023-05-04T02:25:08.809Z,14.23
2023-05-04T02:27:37.076Z,14.95
2023-05-04T02:30:08.143Z,14.35
2023-05-04T02:32:36.641Z,13.73
2023-05-04T02:35:05.199Z,13.55
2023-05-04T02:37:33.538Z,13.35
2023-05-04T02:40:01.937Z,12.68
2023-05-04T02:42:30.201Z,14.25
2023-05-04T02:44:58.451Z,13.77
2023-05-04T02:47:28.062Z,13.13
2023-05-04T02:49:56.368Z,13.20
2023-05-04T02:52:24.614Z,11.93
2023-05-04T02:54:53.331Z,13.43
2023-05-04T02:57:21.750Z,12.70
2023-05-04T02:59:50.016Z,11.30
2023-05-04T03:02:18.296Z,12.18
2023-05-04T03:04:47.870Z,11.00
2023-05-04T03:07:16.136Z,10.52
2023-05-04T03:09:46.772Z,10.70
2023-05-04T03:12:15.823Z,10.93
2023-05-04T03:14:44.129Z,10.18
2023-05-04T03:17:12.398Z,10.90
2023-05-04T03:19:40.757Z,10.57
2023-05-04T03:22:10.359Z,11.45
2023-05-04T03:24:39.779Z,10.73
2023-05-04T03:27:08.026Z,10.52
2023-05-04T03:29:36.447Z,10.55
2023-05-04T03:32:04.850Z,11.20
2023-05-04T03:34:33.155Z,10.95
2023-05-04T03:37:01.392Z,11.35
2023-05-04T03:39:31.224Z,10.93
2023-05-04T03:41:59.473Z,11.23
2023-05-04T03:44:27.719Z,11.27
2023-05-04T03:46:55.986Z,11.52
2023-05-04T03:49:24.246Z,11.55
2023-05-04T03:51:52.541Z,11.30
2023-05-04T03:54:20.812Z,11.50
2023-05-04T03:56:50.461Z,10.60
2023-05-04T03:59:18.719Z,10.88
2023-05-04T04:01:47.056Z,10.48
2023-05-04T04:04:15.301Z,11.32
2023-05-04T04:06:43.665Z,11.07
2023-05-04T04:09:11.967Z,10.95
2023-05-04T04:11:40.245Z,10.30
2023-05-04T04:14:09.952Z,10.93
2023-05-04T04:16:38.341Z,10.27
2023-05-04T04:19:07.945Z,9.93
2023-05-04T04:21:36.190Z,11.50
2023-05-04T04:24:04.714Z,9.82
2023-05-04T04:26:34.090Z,10.85
2023-05-04T04:29:02.334Z,10.23
2023-05-04T04:31:31.964Z,10.32
2023-05-04T04:34:00.854Z,10.20
2023-05-04T04:36:29.523Z,9.77
2023-05-04T04:38:57.832Z,10.32
2023-05-04T04:41:26.068Z,9.50
2023-05-04T04:43:54.337Z,8.57
2023-05-04T04:46:22.567Z,8.90
2023-05-04T04:48:53.508Z,9.18
2023-05-04T04:51:21.930Z,9.50
2023-05-04T04:53:51.318Z,9.63
2023-05-04T04:56:19.919Z,9.40
2023-05-04T04:58:48.612Z,10.23
2023-05-04T05:01:18.090Z,8.30
2023-05-04T05:03:46.961Z,8.77
2023-05-04T05:06:16.668Z,8.07
2023-05-04T05:08:45.387Z,8.07
2023-05-04T05:11:13.668Z,8.75
2023-05-04T05:13:41.937Z,8.25
2023-05-04T05:16:10.299Z,8.32
2023-05-04T05:18:38.588Z,8.48
2023-05-04T05:21:07.712Z,8.70
2023-05-04T05:23:37.346Z,8.45
2023-05-04T05:26:05.654Z,9.20
2023-05-04T05:28:34.005Z,9.15
2023-05-04T05:31:02.420Z,9.10
2023-05-04T05:33:30.729Z,11.40
2023-05-04T05:35:59.005Z,9.30
2023-05-04T05:38:27.459Z,9.55
2023-05-04T05:40:57.109Z,11.05
2023-05-04T05:43:25.371Z,10.20
2023-05-04T05:45:54.148Z,10.80
2023-05-04T05:48:22.435Z,12.20
2023-05-04T05:50:50.780Z,11.15
2023-05-04T05:53:19.044Z,11.13
2023-05-04T05:55:47.475Z,12.10
2023-05-04T05:58:17.098Z,11.55
2023-05-04T06:00:45.381Z,8.20
2023-05-04T06:03:14.421Z,11.07
2023-05-04T06:05:42.834Z,13.05
2023-05-04T06:08:11.117Z,11.68
2023-05-04T06:10:39.597Z,10.65
2023-05-04T06:13:07.933Z,10.90
2023-05-04T06:15:37.633Z,10.35
2023-05-04T06:18:06.026Z,12.20
2023-05-04T06:20:34.390Z,11.55
2023-05-04T06:23:02.793Z,10.88
2023-05-04T06:25:31.307Z,11.40
2023-05-04T06:27:59.616Z,8.38
2023-05-04T06:30:27.949Z,12.00
2023-05-04T06:32:57.631Z,11.73
2023-05-04T06:35:26.183Z,11.00
2023-05-04T06:37:54.467Z,10.25
2023-05-04T06:40:22.712Z,11.07
2023-05-04T06:42:51.147Z,12.55
2023-05-04T06:45:19.474Z,11.45
2023-05-04T06:47:47.801Z,10.10
2023-05-04T06:50:17.618Z,12.88
2023-05-04T06:52:46.451Z,10.80
2023-05-04T06:55:14.982Z,9.20
2023-05-04T06:57:43.226Z,10.57
2023-05-04T07:00:12.624Z,10.70
2023-05-04T07:02:40.986Z,10.45
2023-05-04T07:05:09.817Z,10.82
2023-05-04T07:07:39.609Z,9.45
2023-05-04T07:10:08.650Z,11.75
2023-05-04T07:12:37.652Z,9.50
2023-05-04T07:15:07.542Z,9.38
2023-05-04T07:17:36.752Z,11.38
2023-05-04T07:20:06.576Z,10.00
2023-05-04T07:22:35.304Z,9.63
2023-05-04T07:25:05.585Z,10.38
2023-05-04T07:27:35.045Z,9.60
2023-05-04T07:30:04.386Z,9.38
2023-05-04T07:32:32.856Z,10.20
2023-05-04T07:35:01.114Z,9.90
2023-05-04T07:37:29.427Z,9.45
2023-05-04T07:39:57.677Z,10.13
2023-05-04T07:42:28.025Z,8.57
2023-05-04T07:44:56.380Z,9.88
2023-05-04T07:47:24.808Z,10.50
2023-05-04T07:49:53.038Z,9.57
2023-05-04T07:52:21.264Z,10.30
2023-05-04T07:54:53.222Z,7.40
2023-05-04T07:57:21.877Z,8.75
2023-05-04T07:59:55.049Z,9.13
2023-05-04T08:02:23.773Z,8.05
2023-05-04T08:04:52.139Z,7.75
2023-05-04T08:07:22.516Z,8.80
2023-05-04T08:09:52.322Z,7.70
2023-05-04T08:12:20.636Z,7.70
2023-05-04T08:14:49.146Z,7.43
2023-05-04T08:17:18.809Z,7.78
2023-05-04T08:19:47.231Z,7.73
2023-05-04T08:22:15.469Z,7.63
2023-05-04T08:24:43.710Z,7.63
2023-05-04T08:27:13.824Z,7.88
2023-05-04T08:29:42.099Z,7.15
2023-05-04T08:32:10.436Z,6.75
2023-05-04T08:34:40.043Z,7.05
2023-05-04T08:37:08.309Z,7.10
2023-05-04T08:39:39.377Z,7.40
2023-05-04T08:42:08.872Z,4.90
2023-05-04T08:44:37.108Z,6.78
2023-05-04T08:47:05.854Z,5.88
2023-05-04T08:49:34.134Z,6.57
2023-05-04T08:52:09.413Z,6.53
2023-05-04T08:54:39.742Z,6.32
2023-05-04T08:57:08.246Z,6.60
2023-05-04T08:59:37.473Z,7.25
2023-05-04T09:02:06.094Z,7.75
2023-05-04T09:04:34.441Z,7.25
2023-05-04T09:07:04.046Z,6.53
2023-05-04T09:09:32.560Z,7.70
2023-05-04T09:12:00.791Z,6.68
2023-05-04T09:14:33.599Z,6.28
2023-05-04T09:17:02.152Z,5.78
2023-05-04T09:19:34.653Z,7.55
2023-05-04T09:22:15.609Z,6.68
2023-05-04T09:24:44.196Z,8.20
2023-05-04T09:27:13.365Z,7.88
2023-05-04T09:29:42.537Z,6.68
2023-05-04T09:32:15.403Z,7.78
2023-05-04T09:34:50.652Z,7.75
2023-05-04T09:37:22.222Z,7.78
2023-05-04T09:39:55.139Z,6.22
2023-05-04T09:42:24.073Z,8.02
2023-05-04T09:45:06.374Z,7.78
2023-05-04T09:47:38.411Z,7.07
2023-05-04T09:50:19.819Z,8.18
2023-05-04T09:52:51.344Z,7.90
2023-05-04T09:57:49.203Z,8.60
2023-05-04T10:00:18.732Z,8.25
2023-05-04T10:02:48.101Z,7.22
2023-05-04T10:05:18.137Z,7.80
2023-05-04T10:07:47.123Z,6.50
2023-05-04T10:10:16.894Z,8.82
2023-05-04T10:12:45.969Z,8.93
2023-05-04T10:15:15.966Z,7.15
2023-05-04T10:18:08.858Z,8.30
2023-05-04T10:21:02.875Z,8.13
2023-05-04T10:24:05.681Z,6.90
2023-05-04T10:26:43.206Z,7.65
2023-05-04T10:31:47.289Z,8.48
2023-05-04T10:34:25.900Z,8.10
2023-05-04T10:36:54.188Z,9.40
2023-05-04T10:39:24.479Z,6.90
2023-05-04T10:42:04.792Z,7.38
2023-05-04T10:44:34.425Z,7.47
2023-05-04T10:47:05.301Z,7.60
2023-05-04T10:49:34.010Z,7.53
2023-05-04T10:52:09.410Z,9.00
2023-05-04T10:54:38.160Z,8.38
2023-05-04T10:57:09.068Z,8.57
2023-05-04T10:59:37.824Z,8.00
2023-05-04T11:02:07.559Z,6.65
2023-05-04T11:04:36.585Z,7.93
2023-05-04T11:07:06.886Z,7.13
2023-05-04T11:09:39.451Z,8.07
2023-05-04T11:12:11.467Z,8.05
2023-05-04T11:14:43.359Z,8.00
2023-05-04T11:19:50.917Z,6.88
2023-05-04T11:22:19.464Z,8.02
2023-05-04T11:24:49.155Z,9.07
2023-05-04T11:27:26.209Z,9.80
2023-05-04T11:29:58.318Z,8.45
2023-05-04T11:32:36.825Z,8.80
2023-05-04T11:35:06.639Z,8.25
2023-05-04T11:37:40.296Z,8.50
2023-05-04T11:40:13.285Z,8.70
2023-05-04T11:42:43.572Z,9.15
2023-05-04T11:45:15.587Z,7.63
2023-05-04T11:47:44.846Z,7.47
2023-05-04T11:50:14.505Z,7.32
2023-05-04T11:52:43.476Z,6.75
2023-05-04T11:55:12.702Z,6.95
2023-05-04T11:57:41.016Z,7.72
2023-05-04T12:00:12.351Z,9.88
2023-05-04T12:02:40.860Z,10.27
2023-05-04T12:05:13.837Z,9.30
2023-05-04T12:07:42.364Z,8.63
2023-05-04T12:10:11.094Z,8.88
2023-05-04T12:12:39.349Z,7.88
2023-05-04T12:15:08.972Z,7.80
2023-05-04T12:17:45.198Z,8.98
2023-05-04T12:20:23.829Z,8.63
2023-05-04T12:22:52.142Z,8.88
2023-05-04T12:25:20.716Z,8.30
2023-05-04T12:27:49.167Z,8.38
2023-05-04T12:30:18.448Z,8.05
2023-05-04T12:35:17.352Z,6.00
2023-05-04T12:37:45.750Z,6.03
2023-05-04T12:40:27.842Z,6.53
2023-05-04T12:42:56.793Z,6.40
2023-05-04T12:45:25.084Z,7.07
2023-05-04T12:47:54.793Z,7.85
2023-05-04T12:50:23.263Z,7.10
2023-05-04T12:52:51.542Z,7.05
2023-05-04T12:55:19.828Z,6.80
2023-05-04T12:57:48.143Z,7.05
2023-05-04T13:00:16.856Z,6.70
2023-05-04T13:02:45.237Z,6.15
2023-05-04T13:05:15.998Z,6.30
2023-05-04T13:07:44.314Z,6.38
2023-05-04T13:10:12.623Z,6.05
2023-05-04T13:12:40.950Z,6.60
2023-05-04T13:15:10.724Z,7.22
2023-05-04T13:17:39.210Z,6.15
2023-05-04T13:20:08.940Z,6.88
2023-05-04T13:22:38.769Z,7.05
2023-05-04T13:25:08.606Z,6.38
2023-05-04T13:27:37.471Z,6.13
2023-05-04T13:30:07.495Z,6.60
2023-05-04T13:32:36.290Z,7.13
2023-05-04T13:35:05.370Z,6.85
2023-05-04T13:37:33.946Z,6.28
2023-05-04T13:40:03.747Z,5.68
2023-05-04T13:42:33.941Z,6.97
2023-05-04T13:45:03.583Z,7.25
2023-05-04T13:47:32.472Z,6.88
2023-05-04T13:50:02.123Z,7.28
2023-05-04T13:52:31.743Z,6.70
2023-05-04T13:55:00.163Z,6.57
2023-05-04T13:57:29.849Z,6.50
2023-05-04T14:00:07.264Z,6.40
2023-05-04T14:02:36.657Z,6.03
2023-05-04T14:05:05.940Z,5.93
2023-05-04T14:07:35.327Z,5.90
2023-05-04T14:10:03.831Z,5.93
2023-05-04T14:12:33.577Z,5.72
2023-05-04T14:15:01.891Z,5.97
2023-05-04T14:17:30.152Z,6.13
2023-05-04T14:19:58.996Z,5.82
2023-05-04T14:22:27.278Z,6.30
2023-05-04T14:24:55.678Z,6.30
2023-05-04T14:27:23.989Z,6.10
2023-05-04T14:29:54.449Z,5.57
2023-05-04T14:32:22.691Z,5.40
2023-05-04T14:34:51.098Z,5.60
2023-05-04T14:37:19.326Z,6.25
2023-05-04T14:39:47.595Z,6.32
2023-05-04T14:42:15.836Z,6.00
2023-05-04T14:44:44.108Z,5.75
2023-05-04T14:47:13.692Z,5.97
2023-05-04T14:49:42.928Z,5.70
2023-05-04T14:52:11.576Z,5.33
2023-05-04T14:54:39.780Z,5.72
2023-05-04T14:57:09.169Z,5.57
2023-05-04T14:59:38.626Z,5.87
2023-05-04T15:02:08.058Z,5.17
2023-05-04T15:04:37.717Z,4.90
2023-05-04T15:07:06.032Z,4.78
2023-05-04T15:09:34.398Z,5.20
2023-05-04T15:12:03.603Z,4.82
2023-05-04T15:14:31.915Z,4.88
2023-05-04T15:17:00.156Z,4.90
2023-05-04T15:19:28.446Z,4.78
2023-05-04T15:21:58.017Z,4.93
2023-05-04T15:24:26.251Z,5.63
2023-05-04T15:26:54.577Z,5.50
2023-05-04T15:29:22.902Z,5.53
2023-05-04T15:31:53.383Z,5.15
2023-05-04T15:34:21.741Z,5.15
2023-05-04T15:36:49.977Z,5.60
2023-05-04T15:39:19.633Z,5.20
2023-05-04T15:41:47.863Z,5.20
2023-05-04T15:44:16.202Z,4.93
2023-05-04T15:46:46.534Z,5.50
2023-05-04T15:51:42.938Z,5.30
2023-05-04T15:54:11.330Z,5.20
2023-05-04T15:56:41.100Z,5.13
2023-05-04T15:59:09.354Z,5.22
2023-05-04T16:01:39.954Z,5.30
2023-05-04T16:04:08.365Z,5.43
2023-05-04T16:06:36.744Z,4.90
2023-05-04T16:09:05.140Z,4.78
2023-05-04T16:11:33.647Z,4.68
2023-05-04T16:14:03.283Z,4.80
2023-05-04T16:16:31.585Z,5.10
2023-05-04T16:18:59.923Z,5.18
2023-05-04T16:21:28.164Z,4.75
2023-05-04T16:23:56.425Z,4.90
2023-05-04T16:26:24.770Z,5.13
2023-05-04T16:28:53.075Z,5.28
2023-05-04T16:31:22.779Z,5.35
2023-05-04T16:33:51.083Z,5.30
2023-05-04T16:36:19.326Z,4.80
2023-05-04T16:38:48.981Z,4.70
2023-05-04T16:41:19.078Z,5.13
2023-05-04T16:43:48.968Z,5.18
2023-05-04T16:46:17.495Z,4.97
2023-05-04T16:48:47.139Z,4.78
2023-05-04T16:51:15.395Z,5.07
2023-05-04T16:53:43.665Z,5.10
2023-05-04T16:56:18.097Z,5.07
2023-05-04T16:58:46.513Z,4.68
2023-05-04T17:01:14.786Z,4.90
2023-05-04T17:03:43.071Z,5.30
2023-05-04T17:06:13.249Z,4.82
2023-05-04T17:08:41.529Z,4.80
2023-05-04T17:11:09.798Z,5.18
2023-05-04T17:13:38.188Z,4.80
2023-05-04T17:16:07.283Z,5.20
2023-05-04T17:18:35.580Z,5.15
2023-05-04T17:21:03.817Z,4.75
2023-05-04T17:23:33.676Z,5.75
2023-05-04T17:26:01.960Z,5.25
2023-05-04T17:28:30.362Z,5.38
2023-05-04T17:30:58.636Z,4.60
2023-05-04T17:33:26.913Z,5.00
2023-05-04T17:35:55.198Z,5.70
2023-05-04T17:38:23.468Z,5.30
2023-05-04T17:40:53.082Z,5.75
2023-05-04T17:43:21.453Z,5.57
2023-05-04T17:45:49.677Z,5.60
2023-05-04T17:48:18.044Z,6.03
2023-05-04T17:50:46.568Z,5.43
2023-05-04T17:53:14.789Z,5.78
2023-05-04T17:55:43.204Z,5.78
2023-05-04T17:58:12.802Z,5.60
2023-05-04T18:00:41.352Z,6.37
2023-05-04T18:03:09.833Z,6.00
2023-05-04T18:05:38.228Z,5.75
2023-05-04T18:08:06.713Z,5.47
2023-05-04T18:10:35.989Z,5.55
2023-05-04T18:13:04.266Z,5.22
2023-05-04T18:15:33.938Z,5.35
2023-05-04T18:18:02.538Z,4.60
2023-05-04T18:20:30.841Z,5.18
2023-05-04T18:22:59.100Z,5.18
2023-05-04T18:25:27.497Z,5.38
2023-05-04T18:27:56.083Z,5.40
2023-05-04T18:30:24.378Z,5.90
2023-05-04T18:32:54.008Z,5.25
2023-05-04T18:35:22.499Z,5.77
2023-05-04T18:37:50.905Z,5.43
2023-05-04T18:40:19.285Z,5.72
2023-05-04T18:42:47.508Z,5.43
2023-05-04T18:45:15.804Z,5.75
2023-05-04T18:47:44.096Z,5.20
2023-05-04T18:50:13.964Z,5.13
2023-05-04T18:52:42.194Z,5.45
2023-05-04T18:55:11.027Z,4.70
2023-05-04T18:57:39.274Z,5.45
2023-05-04T19:00:09.489Z,4.95
2023-05-04T19:02:38.143Z,4.75
2023-05-04T19:05:06.872Z,5.15
2023-05-04T19:07:37.004Z,5.45
2023-05-04T19:10:06.632Z,5.57
2023-05-04T19:12:35.068Z,5.90
2023-05-04T19:15:03.293Z,6.10
2023-05-04T19:17:31.751Z,5.55
2023-05-04T19:20:00.092Z,5.45
2023-05-04T19:22:28.395Z,5.60
2023-05-04T19:24:58.057Z,5.80
2023-05-04T19:27:26.367Z,5.40
2023-05-04T19:29:56.102Z,5.57
2023-05-04T19:32:25.166Z,5.97
2023-05-04T19:34:53.800Z,5.80
2023-05-04T19:37:22.190Z,5.50
2023-05-04T19:39:50.481Z,5.47
2023-05-04T19:42:20.133Z,6.28
2023-05-04T19:44:48.384Z,6.53
2023-05-04T19:47:16.918Z,5.75
2023-05-04T19:49:47.461Z,5.55
2023-05-04T19:54:45.037Z,5.82
2023-05-04T19:57:13.273Z,5.38
2023-05-04T19:59:44.743Z,6.43
2023-05-04T20:02:14.614Z,5.53
2023-05-04T20:04:42.960Z,5.63
2023-05-04T20:07:11.210Z,5.15
2023-05-04T20:09:39.518Z,5.95
2023-05-04T20:12:08.192Z,5.57
2023-05-04T20:14:36.793Z,5.53
2023-05-04T20:17:06.778Z,6.07
2023-05-04T20:19:35.043Z,5.22
2023-05-04T20:22:03.369Z,5.70
2023-05-04T20:24:31.605Z,6.90
2023-05-04T20:26:59.858Z,5.90
2023-05-04T20:29:28.162Z,6.05
2023-05-04T20:31:56.420Z,6.00
2023-05-04T20:34:26.096Z,5.93
2023-05-04T20:36:54.496Z,6.83
2023-05-04T20:39:22.761Z,6.03
2023-05-04T20:41:51.113Z,6.00
2023-05-04T20:44:19.421Z,6.00
2023-05-04T20:46:47.750Z,5.40
2023-05-04T20:49:15.982Z,5.72
2023-05-04T20:51:46.121Z,6.40
2023-05-04T20:54:14.354Z,5.90
2023-05-04T20:56:42.585Z,6.13
2023-05-04T20:59:10.946Z,6.20
2023-05-04T21:01:39.213Z,5.78
2023-05-04T21:04:07.812Z,6.30
2023-05-04T21:06:36.047Z,6.32
2023-05-04T21:09:05.798Z,6.03
2023-05-04T21:11:34.529Z,6.53
2023-05-04T21:14:03.261Z,6.05
2023-05-04T21:16:31.776Z,6.15
2023-05-04T21:19:00.152Z,5.50
2023-05-04T21:21:28.507Z,5.90
2023-05-04T21:23:56.813Z,6.40
2023-05-04T21:26:26.767Z,5.47
2023-05-04T21:28:55.168Z,6.90
2023-05-04T21:31:23.473Z,5.88
2023-05-04T21:33:52.245Z,5.85
2023-05-04T21:36:21.045Z,5.80
2023-05-04T21:38:49.455Z,6.03
2023-05-04T21:41:18.000Z,5.82
2023-05-04T21:43:47.639Z,5.57
2023-05-04T21:46:16.054Z,6.28
2023-05-04T21:48:44.538Z,5.78
2023-05-04T21:51:12.996Z,5.97
2023-05-04T21:53:44.097Z,6.70
2023-05-04T21:56:12.807Z,6.13
2023-05-04T21:58:41.175Z,5.60
2023-05-04T22:01:12.323Z,6.05
2023-05-04T22:03:41.010Z,6.10
2023-05-04T22:06:09.485Z,5.75
2023-05-04T22:08:37.907Z,5.93
2023-05-04T22:11:06.387Z,5.60
2023-05-04T22:13:34.705Z,6.40
2023-05-04T22:16:03.083Z,6.43
2023-05-04T22:18:32.744Z,6.30
2023-05-04T22:21:01.300Z,6.50
2023-05-04T22:23:29.671Z,5.68
2023-05-04T22:25:58.002Z,6.22
2023-05-04T22:28:26.415Z,5.93
2023-05-04T22:30:54.782Z,6.50
2023-05-04T22:33:23.166Z,5.80
2023-05-04T22:35:52.810Z,6.13
2023-05-04T22:38:21.093Z,5.50
2023-05-04T22:40:50.123Z,5.05
2023-05-04T22:43:18.397Z,5.97
2023-05-04T22:45:46.717Z,5.63
2023-05-04T22:48:15.126Z,5.25
2023-05-04T22:50:43.560Z,16.40
2023-05-04T22:53:14.545Z,6.25
2023-05-04T22:55:42.895Z,5.93
2023-05-04T22:58:11.303Z,6.80
2023-05-04T23:00:39.635Z,6.40
2023-05-04T23:03:08.077Z,6.07
2023-05-04T23:05:36.583Z,5.85
2023-05-04T23:08:05.164Z,5.45
2023-05-04T23:10:35.683Z,5.47
2023-05-04T23:13:03.982Z,5.70
2023-05-04T23:15:32.786Z,5.55
2023-05-04T23:18:01.301Z,6.03
2023-05-04T23:20:29.816Z,5.95
2023-05-04T23:22:58.202Z,5.80
2023-05-04T23:25:26.710Z,5.90
2023-05-04T23:27:56.386Z,5.85
2023-05-04T23:30:24.715Z,5.70
2023-05-04T23:32:53.050Z,5.70
2023-05-04T23:35:21.530Z,5.97
2023-05-04T23:37:49.864Z,6.18
2023-05-04T23:40:18.385Z,6.45
2023-05-04T23:42:49.856Z,6.03
2023-05-04T23:45:19.578Z,6.05
2023-05-04T23:47:47.844Z,6.43
2023-05-04T23:50:16.570Z,6.75
2023-05-04T23:52:44.899Z,5.28
2023-05-04T23:55:13.675Z,5.85
2023-05-04T23:57:44.301Z,5.80
